sensor_id;sensor_type;location;lat;lon;timestamp;P1;durP1;ratioP1;P2;durP2;ratioP2
71888;SDS011;59762;49.998;14.858;2023-12-29T00:01:51;15.55;;;5.80;;
71888;SDS011;59762;49.998;14.858;2023-12-29T00:04:17;8.57;;;4.47;;
71888;SDS011;59762;49.998;14.858;2023-12-29T00:06:43;8.23;;;3.53;;
71888;SDS011;59762;49.998;14.858;2023-12-29T00:09:08;17.42;;;6.45;;
71888;SDS011;59762;49.998;14.858;2023-12-29T00:11:34;15.55;;;4.60;;
71888;SDS011;59762;49.998;14.858;2023-12-29T00:14:00;8.38;;;4.05;;
71888;SDS011;59762;49.998;14.858;2023-12-29T00:16:29;25.33;;;6.53;;
71888;SDS011;59762;49.998;14.858;2023-12-29T00:18:55;24.77;;;6.30;;
71888;SDS011;59762;49.998;14.858;2023-12-29T00:21:21;15.45;;;5.93;;
71888;SDS011;59762;49.998;14.858;2023-12-29T00:23:46;11.80;;;3.83;;
71888;SDS011;59762;49.998;14.858;2023-12-29T00:26:16;5.32;;;2.90;;
71888;SDS011;59762;49.998;14.858;2023-12-29T00:28:43;8.07;;;3.50;;
71888;SDS011;59762;49.998;14.858;2023-12-29T00:31:09;13.95;;;4.68;;
71888;SDS011;59762;49.998;14.858;2023-12-29T00:33:39;8.05;;;2.65;;
71888;SDS011;59762;49.998;14.858;2023-12-29T00:36:05;11.68;;;4.43;;
71888;SDS011;59762;49.998;14.858;2023-12-29T00:38:31;17.08;;;5.30;;
71888;SDS011;59762;49.998;14.858;2023-12-29T00:40:56;24.13;;;7.25;;
71888;SDS011;59762;49.998;14.858;2023-12-29T00:43:22;14.55;;;6.03;;
71888;SDS011;59762;49.998;14.858;2023-12-29T00:45:48;11.05;;;3.65;;
71888;SDS011;59762;49.998;14.858;2023-12-29T00:48:14;18.88;;;5.50;;
71888;SDS011;59762;49.998;14.858;2023-12-29T00:50:39;17.05;;;4.55;;
71888;SDS011;59762;49.998;14.858;2023-12-29T00:53:05;19.85;;;5.72;;
71888;SDS011;59762;49.998;14.858;2023-12-29T00:55:31;15.80;;;6.32;;
71888;SDS011;59762;49.998;14.858;2023-12-29T00:57:56;7.63;;;3.45;;
71888;SDS011;59762;49.998;14.858;2023-12-29T01:00:22;13.70;;;3.97;;
71888;SDS011;59762;49.998;14.858;2023-12-29T01:02:47;9.55;;;3.28;;
71888;SDS011;59762;49.998;14.858;2023-12-29T01:05:17;17.25;;;5.93;;
71888;SDS011;59762;49.998;14.858;2023-12-29T01:07:42;30.48;;;11.05;;
71888;SDS011;59762;49.998;14.858;2023-12-29T01:10:08;10.82;;;4.53;;
71888;SDS011;59762;49.998;14.858;2023-12-29T01:12:34;14.20;;;4.55;;
71888;SDS011;59762;49.998;14.858;2023-12-29T01:15:00;19.63;;;5.97;;
71888;SDS011;59762;49.998;14.858;2023-12-29T01:17:25;30.15;;;11.13;;
71888;SDS011;59762;49.998;14.858;2023-12-29T01:19:56;17.85;;;5.70;;
71888;SDS011;59762;49.998;14.858;2023-12-29T01:22:21;18.15;;;7.47;;
71888;SDS011;59762;49.998;14.858;2023-12-29T01:24:47;16.42;;;6.30;;
71888;SDS011;59762;49.998;14.858;2023-12-29T01:27:13;12.80;;;5.97;;
71888;SDS011;59762;49.998;14.858;2023-12-29T01:29:39;7.25;;;3.83;;
71888;SDS011;59762;49.998;14.858;2023-12-29T01:32:04;9.80;;;3.35;;
71888;SDS011;59762;49.998;14.858;2023-12-29T01:34:33;11.55;;;4.07;;
71888;SDS011;59762;49.998;14.858;2023-12-29T01:36:59;7.18;;;3.70;;
71888;SDS011;59762;49.998;14.858;2023-12-29T01:39:28;11.85;;;3.90;;
71888;SDS011;59762;49.998;14.858;2023-12-29T01:41:55;7.57;;;2.53;;
71888;SDS011;59762;49.998;14.858;2023-12-29T01:44:23;10.32;;;3.22;;
71888;SDS011;59762;49.998;14.858;2023-12-29T01:46:50;8.88;;;3.78;;
71888;SDS011;59762;49.998;14.858;2023-12-29T01:49:17;8.68;;;2.78;;
71888;SDS011;59762;49.998;14.858;2023-12-29T01:51:44;9.07;;;3.83;;
71888;SDS011;59762;49.998;14.858;2023-12-29T01:54:16;6.50;;;2.78;;
71888;SDS011;59762;49.998;14.858;2023-12-29T01:56:43;8.57;;;3.17;;
71888;SDS011;59762;49.998;14.858;2023-12-29T01:59:10;10.05;;;4.18;;
71888;SDS011;59762;49.998;14.858;2023-12-29T02:01:35;11.32;;;3.85;;
71888;SDS011;59762;49.998;14.858;2023-12-29T02:04:05;11.10;;;5.03;;
71888;SDS011;59762;49.998;14.858;2023-12-29T02:06:32;10.35;;;3.75;;
71888;SDS011;59762;49.998;14.858;2023-12-29T02:08:59;15.55;;;5.63;;
71888;SDS011;59762;49.998;14.858;2023-12-29T02:11:27;5.18;;;2.55;;
71888;SDS011;59762;49.998;14.858;2023-12-29T02:13:53;9.80;;;5.00;;
71888;SDS011;59762;49.998;14.858;2023-12-29T02:16:20;8.65;;;3.53;;
71888;SDS011;59762;49.998;14.858;2023-12-29T02:18:53;12.52;;;3.17;;
71888;SDS011;59762;49.998;14.858;2023-12-29T02:21:23;4.35;;;2.63;;
71888;SDS011;59762;49.998;14.858;2023-12-29T02:23:50;4.20;;;2.63;;
71888;SDS011;59762;49.998;14.858;2023-12-29T02:26:16;3.75;;;1.85;;
71888;SDS011;59762;49.998;14.858;2023-12-29T02:28:48;4.30;;;2.28;;
71888;SDS011;59762;49.998;14.858;2023-12-29T02:31:25;5.70;;;3.13;;
71888;SDS011;59762;49.998;14.858;2023-12-29T02:33:54;5.00;;;1.92;;
71888;SDS011;59762;49.998;14.858;2023-12-29T02:36:22;5.97;;;2.67;;
71888;SDS011;59762;49.998;14.858;2023-12-29T02:38:48;9.02;;;3.85;;
71888;SDS011;59762;49.998;14.858;2023-12-29T02:41:13;10.02;;;3.47;;
71888;SDS011;59762;49.998;14.858;2023-12-29T02:43:40;10.77;;;4.13;;
71888;SDS011;59762;49.998;14.858;2023-12-29T02:46:06;7.68;;;3.80;;
71888;SDS011;59762;49.998;14.858;2023-12-29T02:48:31;12.15;;;3.55;;
71888;SDS011;59762;49.998;14.858;2023-12-29T02:50:57;6.85;;;3.55;;
71888;SDS011;59762;49.998;14.858;2023-12-29T02:53:23;9.77;;;4.55;;
71888;SDS011;59762;49.998;14.858;2023-12-29T02:55:48;11.55;;;4.50;;
71888;SDS011;59762;49.998;14.858;2023-12-29T02:58:14;11.07;;;3.70;;
71888;SDS011;59762;49.998;14.858;2023-12-29T03:00:40;6.90;;;3.47;;
71888;SDS011;59762;49.998;14.858;2023-12-29T03:03:05;5.93;;;2.80;;
71888;SDS011;59762;49.998;14.858;2023-12-29T03:05:31;7.80;;;3.15;;
71888;SDS011;59762;49.998;14.858;2023-12-29T03:07:57;7.13;;;2.97;;
71888;SDS011;59762;49.998;14.858;2023-12-29T03:10:22;8.50;;;2.58;;
71888;SDS011;59762;49.998;14.858;2023-12-29T03:12:49;8.18;;;2.85;;
71888;SDS011;59762;49.998;14.858;2023-12-29T03:15:14;10.52;;;3.30;;
71888;SDS011;59762;49.998;14.858;2023-12-29T03:17:40;5.07;;;2.47;;
71888;SDS011;59762;49.998;14.858;2023-12-29T03:20:06;10.00;;;3.00;;
71888;SDS011;59762;49.998;14.858;2023-12-29T03:22:33;6.78;;;2.80;;
71888;SDS011;59762;49.998;14.858;2023-12-29T03:24:58;7.82;;;2.35;;
71888;SDS011;59762;49.998;14.858;2023-12-29T03:27:24;4.97;;;3.22;;
71888;SDS011;59762;49.998;14.858;2023-12-29T03:29:50;6.70;;;3.05;;
71888;SDS011;59762;49.998;14.858;2023-12-29T03:32:16;4.40;;;2.33;;
71888;SDS011;59762;49.998;14.858;2023-12-29T03:34:42;4.85;;;2.33;;
71888;SDS011;59762;49.998;14.858;2023-12-29T03:37:08;3.67;;;2.03;;
71888;SDS011;59762;49.998;14.858;2023-12-29T03:39:34;4.28;;;2.20;;
71888;SDS011;59762;49.998;14.858;2023-12-29T03:42:01;5.45;;;2.65;;
71888;SDS011;59762;49.998;14.858;2023-12-29T03:44:27;5.25;;;2.45;;
71888;SDS011;59762;49.998;14.858;2023-12-29T03:46:52;5.38;;;2.40;;
71888;SDS011;59762;49.998;14.858;2023-12-29T03:49:18;5.22;;;2.50;;
71888;SDS011;59762;49.998;14.858;2023-12-29T03:51:45;5.22;;;3.28;;
71888;SDS011;59762;49.998;14.858;2023-12-29T03:54:11;6.70;;;2.53;;
71888;SDS011;59762;49.998;14.858;2023-12-29T03:56:37;4.85;;;2.42;;
71888;SDS011;59762;49.998;14.858;2023-12-29T03:59:03;2.20;;;1.70;;
71888;SDS011;59762;49.998;14.858;2023-12-29T04:01:29;4.82;;;1.98;;
71888;SDS011;59762;49.998;14.858;2023-12-29T04:03:58;3.38;;;1.60;;
71888;SDS011;59762;49.998;14.858;2023-12-29T04:06:24;3.28;;;1.90;;
71888;SDS011;59762;49.998;14.858;2023-12-29T04:08:49;3.25;;;1.77;;
71888;SDS011;59762;49.998;14.858;2023-12-29T04:11:15;6.10;;;2.35;;
71888;SDS011;59762;49.998;14.858;2023-12-29T04:13:41;4.63;;;2.28;;
71888;SDS011;59762;49.998;14.858;2023-12-29T04:16:06;3.58;;;1.85;;
71888;SDS011;59762;49.998;14.858;2023-12-29T04:18:32;3.92;;;2.00;;
71888;SDS011;59762;49.998;14.858;2023-12-29T04:20:58;5.20;;;2.25;;
71888;SDS011;59762;49.998;14.858;2023-12-29T04:23:23;4.13;;;2.20;;
71888;SDS011;59762;49.998;14.858;2023-12-29T04:25:49;3.47;;;2.20;;
71888;SDS011;59762;49.998;14.858;2023-12-29T04:28:14;5.80;;;3.17;;
71888;SDS011;59762;49.998;14.858;2023-12-29T04:30:40;11.75;;;5.38;;
71888;SDS011;59762;49.998;14.858;2023-12-29T04:33:06;12.00;;;3.80;;
71888;SDS011;59762;49.998;14.858;2023-12-29T04:35:32;8.25;;;2.95;;
71888;SDS011;59762;49.998;14.858;2023-12-29T04:37:57;9.85;;;3.50;;
71888;SDS011;59762;49.998;14.858;2023-12-29T04:40:23;8.18;;;3.13;;
71888;SDS011;59762;49.998;14.858;2023-12-29T04:42:49;11.82;;;4.10;;
71888;SDS011;59762;49.998;14.858;2023-12-29T04:45:14;7.22;;;2.97;;
71888;SDS011;59762;49.998;14.858;2023-12-29T04:47:40;5.45;;;2.97;;
71888;SDS011;59762;49.998;14.858;2023-12-29T04:50:06;5.32;;;2.17;;
71888;SDS011;59762;49.998;14.858;2023-12-29T04:52:32;7.07;;;3.38;;
71888;SDS011;59762;49.998;14.858;2023-12-29T04:54:58;4.35;;;1.90;;
71888;SDS011;59762;49.998;14.858;2023-12-29T04:57:23;7.47;;;2.40;;
71888;SDS011;59762;49.998;14.858;2023-12-29T04:59:49;4.28;;;2.75;;
71888;SDS011;59762;49.998;14.858;2023-12-29T05:02:15;5.05;;;2.40;;
71888;SDS011;59762;49.998;14.858;2023-12-29T05:04:40;3.67;;;1.70;;
71888;SDS011;59762;49.998;14.858;2023-12-29T05:07:08;3.13;;;2.00;;
71888;SDS011;59762;49.998;14.858;2023-12-29T05:09:34;1.88;;;1.40;;
71888;SDS011;59762;49.998;14.858;2023-12-29T05:12:00;15.75;;;3.75;;
71888;SDS011;59762;49.998;14.858;2023-12-29T05:14:27;11.57;;;4.40;;
71888;SDS011;59762;49.998;14.858;2023-12-29T05:16:52;8.73;;;2.53;;
71888;SDS011;59762;49.998;14.858;2023-12-29T05:19:18;7.65;;;3.10;;
71888;SDS011;59762;49.998;14.858;2023-12-29T05:21:44;8.02;;;3.22;;
71888;SDS011;59762;49.998;14.858;2023-12-29T05:24:09;5.22;;;2.05;;
71888;SDS011;59762;49.998;14.858;2023-12-29T05:26:35;2.50;;;1.42;;
71888;SDS011;59762;49.998;14.858;2023-12-29T05:29:02;2.53;;;0.95;;
71888;SDS011;59762;49.998;14.858;2023-12-29T05:31:28;2.85;;;1.33;;
71888;SDS011;59762;49.998;14.858;2023-12-29T05:33:53;2.10;;;1.20;;
71888;SDS011;59762;49.998;14.858;2023-12-29T05:36:21;2.40;;;1.40;;
71888;SDS011;59762;49.998;14.858;2023-12-29T05:38:47;3.45;;;1.70;;
71888;SDS011;59762;49.998;14.858;2023-12-29T05:41:13;2.30;;;1.30;;
71888;SDS011;59762;49.998;14.858;2023-12-29T05:43:39;1.45;;;1.15;;
71888;SDS011;59762;49.998;14.858;2023-12-29T05:46:11;2.20;;;1.38;;
71888;SDS011;59762;49.998;14.858;2023-12-29T05:48:37;2.33;;;1.52;;
71888;SDS011;59762;49.998;14.858;2023-12-29T05:51:07;10.35;;;5.18;;
71888;SDS011;59762;49.998;14.858;2023-12-29T05:53:34;4.88;;;3.10;;
71888;SDS011;59762;49.998;14.858;2023-12-29T05:56:00;5.65;;;2.28;;
71888;SDS011;59762;49.998;14.858;2023-12-29T05:58:26;2.08;;;1.42;;
71888;SDS011;59762;49.998;14.858;2023-12-29T06:00:51;3.35;;;2.38;;
71888;SDS011;59762;49.998;14.858;2023-12-29T06:03:17;6.00;;;2.60;;
71888;SDS011;59762;49.998;14.858;2023-12-29T06:05:42;3.22;;;2.15;;
71888;SDS011;59762;49.998;14.858;2023-12-29T06:08:08;3.25;;;2.13;;
71888;SDS011;59762;49.998;14.858;2023-12-29T06:10:35;10.00;;;4.43;;
71888;SDS011;59762;49.998;14.858;2023-12-29T06:13:01;8.13;;;2.88;;
71888;SDS011;59762;49.998;14.858;2023-12-29T06:15:28;12.63;;;6.13;;
71888;SDS011;59762;49.998;14.858;2023-12-29T06:17:53;14.98;;;7.15;;
71888;SDS011;59762;49.998;14.858;2023-12-29T06:20:19;4.38;;;2.90;;
71888;SDS011;59762;49.998;14.858;2023-12-29T06:22:45;3.15;;;2.25;;
71888;SDS011;59762;49.998;14.858;2023-12-29T06:25:11;7.57;;;2.92;;
71888;SDS011;59762;49.998;14.858;2023-12-29T06:27:38;3.03;;;1.98;;
71888;SDS011;59762;49.998;14.858;2023-12-29T06:30:05;5.85;;;3.40;;
71888;SDS011;59762;49.998;14.858;2023-12-29T06:32:31;6.63;;;3.40;;
71888;SDS011;59762;49.998;14.858;2023-12-29T06:34:57;19.55;;;5.20;;
71888;SDS011;59762;49.998;14.858;2023-12-29T06:37:23;7.82;;;3.17;;
71888;SDS011;59762;49.998;14.858;2023-12-29T06:39:49;26.65;;;11.48;;
71888;SDS011;59762;49.998;14.858;2023-12-29T06:42:14;40.53;;;14.23;;
71888;SDS011;59762;49.998;14.858;2023-12-29T06:44:40;19.83;;;5.95;;
71888;SDS011;59762;49.998;14.858;2023-12-29T06:47:05;16.15;;;5.65;;
71888;SDS011;59762;49.998;14.858;2023-12-29T06:49:35;30.95;;;10.95;;
71888;SDS011;59762;49.998;14.858;2023-12-29T06:52:01;25.98;;;11.02;;
71888;SDS011;59762;49.998;14.858;2023-12-29T06:54:27;30.30;;;9.60;;
71888;SDS011;59762;49.998;14.858;2023-12-29T06:56:52;11.63;;;4.63;;
71888;SDS011;59762;49.998;14.858;2023-12-29T06:59:18;14.85;;;5.10;;
71888;SDS011;59762;49.998;14.858;2023-12-29T07:01:45;16.73;;;7.47;;
71888;SDS011;59762;49.998;14.858;2023-12-29T07:04:11;20.42;;;6.50;;
71888;SDS011;59762;49.998;14.858;2023-12-29T07:06:37;5.93;;;3.17;;
71888;SDS011;59762;49.998;14.858;2023-12-29T07:09:04;5.78;;;3.13;;
71888;SDS011;59762;49.998;14.858;2023-12-29T07:11:30;4.30;;;2.40;;
71888;SDS011;59762;49.998;14.858;2023-12-29T07:13:56;7.47;;;2.90;;
71888;SDS011;59762;49.998;14.858;2023-12-29T07:16:22;3.85;;;1.80;;
71888;SDS011;59762;49.998;14.858;2023-12-29T07:18:48;2.75;;;1.48;;
71888;SDS011;59762;49.998;14.858;2023-12-29T07:21:14;3.92;;;2.75;;
71888;SDS011;59762;49.998;14.858;2023-12-29T07:23:41;2.90;;;1.67;;
71888;SDS011;59762;49.998;14.858;2023-12-29T07:26:07;9.23;;;5.35;;
71888;SDS011;59762;49.998;14.858;2023-12-29T07:28:33;2.50;;;1.88;;
71888;SDS011;59762;49.998;14.858;2023-12-29T07:30:59;3.47;;;2.13;;
71888;SDS011;59762;49.998;14.858;2023-12-29T07:33:25;7.25;;;5.03;;
71888;SDS011;59762;49.998;14.858;2023-12-29T07:35:51;1.83;;;1.40;;
71888;SDS011;59762;49.998;14.858;2023-12-29T07:38:16;3.45;;;2.08;;
71888;SDS011;59762;49.998;14.858;2023-12-29T07:40:42;3.17;;;2.08;;
71888;SDS011;59762;49.998;14.858;2023-12-29T07:43:08;8.45;;;4.65;;
71888;SDS011;59762;49.998;14.858;2023-12-29T07:45:33;6.65;;;4.32;;
71888;SDS011;59762;49.998;14.858;2023-12-29T07:47:59;4.18;;;2.20;;
71888;SDS011;59762;49.998;14.858;2023-12-29T07:50:27;4.88;;;2.80;;
71888;SDS011;59762;49.998;14.858;2023-12-29T07:52:52;10.27;;;5.82;;
71888;SDS011;59762;49.998;14.858;2023-12-29T07:55:18;31.10;;;11.90;;
71888;SDS011;59762;49.998;14.858;2023-12-29T07:57:44;14.32;;;8.13;;
71888;SDS011;59762;49.998;14.858;2023-12-29T08:00:12;33.85;;;17.38;;
71888;SDS011;59762;49.998;14.858;2023-12-29T08:02:38;35.00;;;16.65;;
71888;SDS011;59762;49.998;14.858;2023-12-29T08:05:04;49.78;;;21.15;;
71888;SDS011;59762;49.998;14.858;2023-12-29T08:07:29;31.92;;;12.80;;
71888;SDS011;59762;49.998;14.858;2023-12-29T08:09:55;13.10;;;7.13;;
71888;SDS011;59762;49.998;14.858;2023-12-29T08:12:21;8.45;;;5.53;;
71888;SDS011;59762;49.998;14.858;2023-12-29T08:14:46;22.30;;;10.88;;
71888;SDS011;59762;49.998;14.858;2023-12-29T08:17:12;15.02;;;5.63;;
71888;SDS011;59762;49.998;14.858;2023-12-29T08:19:38;25.73;;;10.95;;
71888;SDS011;59762;49.998;14.858;2023-12-29T08:22:03;20.33;;;10.77;;
71888;SDS011;59762;49.998;14.858;2023-12-29T08:24:29;22.63;;;11.05;;
71888;SDS011;59762;49.998;14.858;2023-12-29T08:26:55;9.77;;;5.47;;
71888;SDS011;59762;49.998;14.858;2023-12-29T08:29:20;11.55;;;5.82;;
71888;SDS011;59762;49.998;14.858;2023-12-29T08:31:47;14.18;;;7.38;;
71888;SDS011;59762;49.998;14.858;2023-12-29T08:34:12;6.03;;;4.45;;
71888;SDS011;59762;49.998;14.858;2023-12-29T08:36:38;18.10;;;7.43;;
71888;SDS011;59762;49.998;14.858;2023-12-29T08:39:03;18.33;;;7.10;;
71888;SDS011;59762;49.998;14.858;2023-12-29T08:41:29;40.30;;;14.88;;
71888;SDS011;59762;49.998;14.858;2023-12-29T08:43:55;17.63;;;9.35;;
71888;SDS011;59762;49.998;14.858;2023-12-29T08:46:20;14.85;;;7.82;;
71888;SDS011;59762;49.998;14.858;2023-12-29T08:48:47;6.72;;;3.53;;
71888;SDS011;59762;49.998;14.858;2023-12-29T08:51:13;5.07;;;2.42;;
71888;SDS011;59762;49.998;14.858;2023-12-29T08:53:39;4.70;;;2.88;;
71888;SDS011;59762;49.998;14.858;2023-12-29T08:56:05;2.92;;;1.67;;
71888;SDS011;59762;49.998;14.858;2023-12-29T08:58:31;5.10;;;2.83;;
71888;SDS011;59762;49.998;14.858;2023-12-29T09:00:57;6.07;;;3.00;;
71888;SDS011;59762;49.998;14.858;2023-12-29T09:03:23;5.15;;;2.63;;
71888;SDS011;59762;49.998;14.858;2023-12-29T09:05:49;8.27;;;4.63;;
71888;SDS011;59762;49.998;14.858;2023-12-29T09:08:14;9.68;;;4.65;;
71888;SDS011;59762;49.998;14.858;2023-12-29T09:10:40;6.10;;;4.03;;
71888;SDS011;59762;49.998;14.858;2023-12-29T09:13:06;5.85;;;3.10;;
71888;SDS011;59762;49.998;14.858;2023-12-29T09:15:32;34.55;;;11.98;;
71888;SDS011;59762;49.998;14.858;2023-12-29T09:17:57;18.52;;;8.98;;
71888;SDS011;59762;49.998;14.858;2023-12-29T09:20:23;9.13;;;3.30;;
71888;SDS011;59762;49.998;14.858;2023-12-29T09:22:48;6.40;;;3.72;;
71888;SDS011;59762;49.998;14.858;2023-12-29T09:25:14;12.50;;;6.07;;
71888;SDS011;59762;49.998;14.858;2023-12-29T09:27:40;6.65;;;3.67;;
71888;SDS011;59762;49.998;14.858;2023-12-29T09:30:06;8.43;;;4.85;;
71888;SDS011;59762;49.998;14.858;2023-12-29T09:32:32;14.52;;;4.68;;
71888;SDS011;59762;49.998;14.858;2023-12-29T09:34:58;9.00;;;4.03;;
71888;SDS011;59762;49.998;14.858;2023-12-29T09:37:23;6.82;;;3.30;;
71888;SDS011;59762;49.998;14.858;2023-12-29T09:39:49;9.32;;;5.45;;
71888;SDS011;59762;49.998;14.858;2023-12-29T09:42:21;12.85;;;7.05;;
71888;SDS011;59762;49.998;14.858;2023-12-29T09:44:50;8.48;;;3.95;;
71888;SDS011;59762;49.998;14.858;2023-12-29T09:47:23;5.80;;;3.33;;
71888;SDS011;59762;49.998;14.858;2023-12-29T09:49:51;11.15;;;5.53;;
71888;SDS011;59762;49.998;14.858;2023-12-29T09:52:21;13.23;;;5.32;;
71888;SDS011;59762;49.998;14.858;2023-12-29T09:54:51;10.38;;;5.30;;
71888;SDS011;59762;49.998;14.858;2023-12-29T09:57:17;8.20;;;3.90;;
71888;SDS011;59762;49.998;14.858;2023-12-29T09:59:44;14.90;;;6.15;;
71888;SDS011;59762;49.998;14.858;2023-12-29T10:02:14;7.32;;;3.95;;
71888;SDS011;59762;49.998;14.858;2023-12-29T10:04:43;5.90;;;3.15;;
71888;SDS011;59762;49.998;14.858;2023-12-29T10:07:10;6.18;;;3.28;;
71888;SDS011;59762;49.998;14.858;2023-12-29T10:09:43;6.68;;;3.63;;
71888;SDS011;59762;49.998;14.858;2023-12-29T10:12:11;4.55;;;2.03;;
71888;SDS011;59762;49.998;14.858;2023-12-29T10:15:24;5.63;;;3.20;;
71888;SDS011;59762;49.998;14.858;2023-12-29T10:17:35;11.25;;;6.30;;
71888;SDS011;59762;49.998;14.858;2023-12-29T10:20:21;16.48;;;6.40;;
71888;SDS011;59762;49.998;14.858;2023-12-29T10:23:06;10.77;;;6.03;;
71888;SDS011;59762;49.998;14.858;2023-12-29T10:25:33;6.18;;;3.25;;
71888;SDS011;59762;49.998;14.858;2023-12-29T10:27:59;46.78;;;20.35;;
71888;SDS011;59762;49.998;14.858;2023-12-29T10:30:25;12.60;;;7.80;;
71888;SDS011;59762;49.998;14.858;2023-12-29T10:32:52;12.52;;;5.07;;
71888;SDS011;59762;49.998;14.858;2023-12-29T10:35:18;6.43;;;3.67;;
71888;SDS011;59762;49.998;14.858;2023-12-29T10:37:44;5.68;;;3.25;;
71888;SDS011;59762;49.998;14.858;2023-12-29T10:40:16;11.05;;;5.72;;
71888;SDS011;59762;49.998;14.858;2023-12-29T10:42:54;10.85;;;5.40;;
71888;SDS011;59762;49.998;14.858;2023-12-29T10:45:23;2.75;;;1.75;;
71888;SDS011;59762;49.998;14.858;2023-12-29T10:47:50;5.30;;;3.10;;
71888;SDS011;59762;49.998;14.858;2023-12-29T10:50:16;3.55;;;2.17;;
71888;SDS011;59762;49.998;14.858;2023-12-29T10:52:42;6.47;;;4.10;;
71888;SDS011;59762;49.998;14.858;2023-12-29T10:55:08;7.38;;;3.03;;
71888;SDS011;59762;49.998;14.858;2023-12-29T10:57:36;2.60;;;1.80;;
71888;SDS011;59762;49.998;14.858;2023-12-29T11:00:03;5.97;;;3.35;;
71888;SDS011;59762;49.998;14.858;2023-12-29T11:02:30;3.70;;;1.67;;
71888;SDS011;59762;49.998;14.858;2023-12-29T11:05:01;4.18;;;2.05;;
71888;SDS011;59762;49.998;14.858;2023-12-29T11:07:31;3.47;;;2.17;;
71888;SDS011;59762;49.998;14.858;2023-12-29T11:10:00;7.97;;;4.40;;
71888;SDS011;59762;49.998;14.858;2023-12-29T11:12:29;2.72;;;1.60;;
71888;SDS011;59762;49.998;14.858;2023-12-29T11:14:57;6.10;;;2.67;;
71888;SDS011;59762;49.998;14.858;2023-12-29T11:17:24;7.72;;;3.53;;
71888;SDS011;59762;49.998;14.858;2023-12-29T11:19:52;3.60;;;2.03;;
71888;SDS011;59762;49.998;14.858;2023-12-29T11:22:17;2.95;;;1.65;;
71888;SDS011;59762;49.998;14.858;2023-12-29T11:24:46;4.72;;;1.55;;
71888;SDS011;59762;49.998;14.858;2023-12-29T11:27:12;1.92;;;1.10;;
71888;SDS011;59762;49.998;14.858;2023-12-29T11:29:38;7.93;;;3.67;;
71888;SDS011;59762;49.998;14.858;2023-12-29T11:32:06;12.07;;;5.35;;
71888;SDS011;59762;49.998;14.858;2023-12-29T11:34:39;2.78;;;1.60;;
71888;SDS011;59762;49.998;14.858;2023-12-29T11:37:27;11.30;;;4.38;;
71888;SDS011;59762;49.998;14.858;2023-12-29T11:40:11;10.88;;;4.72;;
71888;SDS011;59762;49.998;14.858;2023-12-29T11:42:44;6.00;;;2.55;;
71888;SDS011;59762;49.998;14.858;2023-12-29T11:45:31;7.63;;;2.25;;
71888;SDS011;59762;49.998;14.858;2023-12-29T11:48:02;13.13;;;4.90;;
71888;SDS011;59762;49.998;14.858;2023-12-29T11:50:29;14.95;;;7.18;;
71888;SDS011;59762;49.998;14.858;2023-12-29T11:52:57;9.00;;;3.92;;
71888;SDS011;59762;49.998;14.858;2023-12-29T11:55:27;10.20;;;5.80;;
71888;SDS011;59762;49.998;14.858;2023-12-29T11:57:55;55.55;;;20.27;;
71888;SDS011;59762;49.998;14.858;2023-12-29T12:00:20;33.30;;;13.63;;
71888;SDS011;59762;49.998;14.858;2023-12-29T12:05:45;31.15;;;12.52;;
71888;SDS011;59762;49.998;14.858;2023-12-29T12:08:32;11.60;;;5.93;;
71888;SDS011;59762;49.998;14.858;2023-12-29T12:13:56;14.02;;;7.30;;
71888;SDS011;59762;49.998;14.858;2023-12-29T12:19:12;3.00;;;2.22;;
71888;SDS011;59762;49.998;14.858;2023-12-29T12:21:39;27.35;;;13.55;;
71888;SDS011;59762;49.998;14.858;2023-12-29T12:24:06;13.05;;;5.65;;
71888;SDS011;59762;49.998;14.858;2023-12-29T12:26:32;17.65;;;8.02;;
71888;SDS011;59762;49.998;14.858;2023-12-29T12:28:58;6.65;;;3.72;;
71888;SDS011;59762;49.998;14.858;2023-12-29T12:31:25;8.23;;;4.35;;
71888;SDS011;59762;49.998;14.858;2023-12-29T12:33:58;7.05;;;3.65;;
71888;SDS011;59762;49.998;14.858;2023-12-29T12:36:28;17.20;;;9.75;;
71888;SDS011;59762;49.998;14.858;2023-12-29T12:38:54;8.07;;;5.20;;
71888;SDS011;59762;49.998;14.858;2023-12-29T12:41:21;11.43;;;5.85;;
71888;SDS011;59762;49.998;14.858;2023-12-29T12:43:59;10.52;;;6.30;;
71888;SDS011;59762;49.998;14.858;2023-12-29T12:46:34;10.77;;;4.15;;
71888;SDS011;59762;49.998;14.858;2023-12-29T12:49:03;8.23;;;3.85;;
71888;SDS011;59762;49.998;14.858;2023-12-29T12:51:30;28.83;;;13.40;;
71888;SDS011;59762;49.998;14.858;2023-12-29T12:53:57;4.95;;;3.17;;
71888;SDS011;59762;49.998;14.858;2023-12-29T12:56:23;16.63;;;8.15;;
71888;SDS011;59762;49.998;14.858;2023-12-29T12:58:56;10.02;;;4.95;;
71888;SDS011;59762;49.998;14.858;2023-12-29T13:01:22;26.42;;;9.27;;
71888;SDS011;59762;49.998;14.858;2023-12-29T13:03:49;80.30;;;20.65;;
71888;SDS011;59762;49.998;14.858;2023-12-29T13:06:16;144.82;;;32.42;;
71888;SDS011;59762;49.998;14.858;2023-12-29T13:08:43;128.23;;;27.15;;
71888;SDS011;59762;49.998;14.858;2023-12-29T13:11:09;111.13;;;28.55;;
71888;SDS011;59762;49.998;14.858;2023-12-29T13:16:08;109.88;;;28.38;;
71888;SDS011;59762;49.998;14.858;2023-12-29T13:18:34;89.03;;;25.30;;
71888;SDS011;59762;49.998;14.858;2023-12-29T13:21:01;26.00;;;10.32;;
71888;SDS011;59762;49.998;14.858;2023-12-29T13:23:28;96.22;;;32.75;;
71888;SDS011;59762;49.998;14.858;2023-12-29T13:25:54;20.13;;;10.88;;
71888;SDS011;59762;49.998;14.858;2023-12-29T13:28:22;6.82;;;3.90;;
71888;SDS011;59762;49.998;14.858;2023-12-29T13:30:49;3.47;;;2.33;;
71888;SDS011;59762;49.998;14.858;2023-12-29T13:33:18;3.63;;;1.67;;
71888;SDS011;59762;49.998;14.858;2023-12-29T13:36:10;19.15;;;6.07;;
71888;SDS011;59762;49.998;14.858;2023-12-29T13:38:47;9.27;;;4.35;;
71888;SDS011;59762;49.998;14.858;2023-12-29T13:41:19;3.55;;;2.03;;
71888;SDS011;59762;49.998;14.858;2023-12-29T13:43:46;8.05;;;2.53;;
71888;SDS011;59762;49.998;14.858;2023-12-29T13:46:13;5.07;;;2.50;;
71888;SDS011;59762;49.998;14.858;2023-12-29T13:48:41;56.90;;;18.52;;
71888;SDS011;59762;49.998;14.858;2023-12-29T13:51:09;9.30;;;5.70;;
71888;SDS011;59762;49.998;14.858;2023-12-29T13:53:34;15.27;;;7.28;;
71888;SDS011;59762;49.998;14.858;2023-12-29T13:56:10;7.25;;;3.53;;
71888;SDS011;59762;49.998;14.858;2023-12-29T13:58:36;3.70;;;2.35;;
71888;SDS011;59762;49.998;14.858;2023-12-29T14:01:03;3.13;;;1.35;;
71888;SDS011;59762;49.998;14.858;2023-12-29T14:06:28;3.85;;;1.60;;
71888;SDS011;59762;49.998;14.858;2023-12-29T14:09:13;7.97;;;2.83;;
71888;SDS011;59762;49.998;14.858;2023-12-29T14:11:44;1.80;;;1.20;;
71888;SDS011;59762;49.998;14.858;2023-12-29T14:14:13;2.45;;;1.30;;
71888;SDS011;59762;49.998;14.858;2023-12-29T14:16:42;4.95;;;1.88;;
71888;SDS011;59762;49.998;14.858;2023-12-29T14:19:08;2.45;;;1.67;;
71888;SDS011;59762;49.998;14.858;2023-12-29T14:21:34;15.82;;;5.88;;
71888;SDS011;59762;49.998;14.858;2023-12-29T14:24:00;13.80;;;7.45;;
71888;SDS011;59762;49.998;14.858;2023-12-29T14:26:31;9.90;;;3.90;;
71888;SDS011;59762;49.998;14.858;2023-12-29T14:29:03;5.53;;;3.60;;
71888;SDS011;59762;49.998;14.858;2023-12-29T14:31:35;9.52;;;3.20;;
71888;SDS011;59762;49.998;14.858;2023-12-29T14:34:02;7.82;;;3.58;;
71888;SDS011;59762;49.998;14.858;2023-12-29T14:36:31;8.77;;;3.95;;
71888;SDS011;59762;49.998;14.858;2023-12-29T14:38:58;25.67;;;9.35;;
71888;SDS011;59762;49.998;14.858;2023-12-29T14:41:24;17.70;;;10.95;;
71888;SDS011;59762;49.998;14.858;2023-12-29T14:43:50;6.25;;;2.95;;